Time;durP1;ratioP1;P1;durP2;ratioP2;P2;SDS_P1;SDS_P2;PMS_P1;PMS_P2;Temp;Humidity;BMP_temperature;BMP_pressure;BME280_temperature;BME280_humidity;BME280_pressure;Samples;Min_cycle;Max_cycle;Signal;HPM_P1;HPM_P2
2023/09/07 00:01:55;;;;;;;6.22;2.88;;;19.00;99.90;;;;;;5083427;28;20074;-61
2023/09/07 00:04:22;;;;;;;3.65;3.28;;;18.90;99.90;;;;;;5067255;28;20076;-60
2023/09/07 00:06:49;;;;;;;4.63;3.38;;;19.00;99.90;;;;;;5082351;28;20060;-58
2023/09/07 00:09:18;;;;;;;6.43;3.80;;;19.10;99.90;;;;;;5083485;28;20052;-58
2023/09/07 00:11:45;;;;;;;6.28;3.92;;;19.20;99.90;;;;;;5022185;28;1150592;-57
2023/09/07 00:14:11;;;;;;;3.50;3.20;;;19.10;99.90;;;;;;5065399;28;20067;-58
2023/09/07 00:16:38;;;;;;;5.80;3.95;;;19.10;99.90;;;;;;5080678;28;20789;-59
2023/09/07 00:19:04;;;;;;;5.97;4.07;;;19.10;99.90;;;;;;5048442;28;20173;-57
2023/09/07 00:21:30;;;;;;;5.47;3.92;;;19.00;99.90;;;;;;5080925;28;20152;-58
2023/09/07 00:23:56;;;;;;;4.78;3.75;;;19.00;99.90;;;;;;5083139;28;20436;-60
2023/09/07 00:26:22;;;;;;;4.85;3.33;;;19.10;99.90;;;;;;5081261;28;20074;-58
2023/09/07 00:28:48;;;;;;;4.90;3.35;;;19.10;99.90;;;;;;5082816;28;20066;-57
2023/09/07 00:31:17;;;;;;;6.18;3.70;;;19.00;99.90;;;;;;5062932;28;20083;-57
2023/09/07 00:33:42;;;;;;;4.45;3.38;;;19.00;99.90;;;;;;5080943;28;20052;-58
2023/09/07 00:36:08;;;;;;;4.10;3.42;;;19.00;99.90;;;;;;5083072;28;20052;-59
2023/09/07 00:38:34;;;;;;;3.10;2.80;;;18.80;99.90;;;;;;5061836;28;20094;-57
2023/09/07 00:40:59;;;;;;;4.93;3.47;;;18.70;99.90;;;;;;5081606;28;20056;-57
2023/09/07 00:43:25;;;;;;;5.03;3.45;;;18.70;99.90;;;;;;5077242;28;20052;-57
2023/09/07 00:45:51;;;;;;;4.15;3.75;;;18.60;99.90;;;;;;5069278;28;20076;-58
2023/09/07 00:48:17;;;;;;;3.92;3.47;;;18.50;99.90;;;;;;5078808;28;20066;-55
2023/09/07 00:50:43;;;;;;;5.75;4.28;;;18.50;99.90;;;;;;5077380;28;20640;-57
2023/09/07 00:53:10;;;;;;;5.15;3.75;;;18.40;99.90;;;;;;5076726;28;20060;-57
2023/09/07 00:55:36;;;;;;;4.50;2.92;;;18.40;99.90;;;;;;5080226;28;20162;-58
2023/09/07 00:58:06;;;;;;;5.57;3.65;;;18.30;99.90;;;;;;5082784;28;20825;-59
2023/09/07 01:00:33;;;;;;;4.60;3.53;;;18.20;99.90;;;;;;5062054;28;20523;-58
2023/09/07 01:03:00;;;;;;;4.90;3.80;;;18.20;99.90;;;;;;5069252;28;20053;-59
2023/09/07 01:05:46;;;;;;;5.47;3.75;;;18.20;99.90;;;;;;5077345;28;20052;-58
2023/09/07 01:10:38;;;;;;;9.52;4.03;;;18.10;99.90;;;;;;5080440;28;20067;-57
2023/09/07 01:13:04;;;;;;;5.22;4.20;;;18.00;99.90;;;;;;5081305;28;20056;-59
2023/09/07 01:15:30;;;;;;;3.75;3.38;;;18.00;99.90;;;;;;5079661;28;20056;-57
2023/09/07 01:17:57;;;;;;;5.13;3.53;;;18.00;99.90;;;;;;5078903;28;20100;-58
2023/09/07 01:20:24;;;;;;;4.75;3.80;;;17.90;99.90;;;;;;5062144;28;20164;-57
2023/09/07 01:22:50;;;;;;;5.55;3.97;;;17.90;99.90;;;;;;5079330;28;20588;-57
2023/09/07 01:25:18;;;;;;;3.80;3.33;;;17.80;99.90;;;;;;5069007;28;20096;-58
2023/09/07 01:27:44;;;;;;;5.50;3.95;;;17.80;99.90;;;;;;5072534;28;20064;-58
2023/09/07 01:30:11;;;;;;;3.60;3.10;;;17.70;99.90;;;;;;5073372;28;20512;-57
2023/09/07 01:32:36;;;;;;;3.85;3.30;;;17.70;99.90;;;;;;5078620;28;21343;-57
2023/09/07 01:35:06;;;;;;;4.93;3.10;;;17.70;99.90;;;;;;5058919;28;20055;-57
2023/09/07 01:37:32;;;;;;;3.65;3.28;;;17.60;99.90;;;;;;5055324;28;20067;-56
2023/09/07 01:39:59;;;;;;;4.28;3.72;;;17.60;99.90;;;;;;5068926;28;20048;-57
2023/09/07 01:42:24;;;;;;;3.50;3.13;;;17.50;99.90;;;;;;5077132;28;20051;-57
2023/09/07 01:44:50;;;;;;;5.10;4.15;;;17.50;99.90;;;;;;5063571;28;20048;-59
2023/09/07 01:47:19;;;;;;;4.00;3.58;;;17.50;99.90;;;;;;5081393;28;20091;-60
2023/09/07 01:49:44;;;;;;;3.63;3.30;;;17.50;99.90;;;;;;5075395;28;20618;-57
2023/09/07 01:52:10;;;;;;;5.22;3.88;;;17.40;99.90;;;;;;5068868;28;20051;-58
2023/09/07 01:54:36;;;;;;;5.10;3.83;;;17.40;99.90;;;;;;5078950;28;20705;-61
2023/09/07 01:57:02;;;;;;;4.85;4.07;;;17.30;99.90;;;;;;5070361;28;20066;-58
2023/09/07 01:59:28;;;;;;;6.07;4.30;;;17.30;99.90;;;;;;5076097;28;20060;-57
2023/09/07 02:01:53;;;;;;;5.22;3.70;;;17.30;99.90;;;;;;5074848;28;20135;-58
2023/09/07 02:04:19;;;;;;;3.97;3.58;;;17.20;99.90;;;;;;5080107;28;20056;-57
2023/09/07 02:06:45;;;;;;;4.57;4.18;;;17.20;99.90;;;;;;5080253;28;20492;-57
2023/09/07 02:09:11;;;;;;;7.20;4.07;;;17.20;99.90;;;;;;5080111;28;20048;-58
2023/09/07 02:11:36;;;;;;;4.97;3.85;;;17.20;99.90;;;;;;5078634;28;20048;-58
2023/09/07 02:14:02;;;;;;;4.28;3.65;;;17.10;99.90;;;;;;5080270;28;20067;-57
2023/09/07 02:16:28;;;;;;;3.65;3.35;;;17.10;99.90;;;;;;5078301;28;20076;-58
2023/09/07 02:19:03;;;;;;;5.03;3.85;;;17.10;99.90;;;;;;5080372;28;20072;-58
2023/09/07 02:21:29;;;;;;;4.90;3.65;;;17.10;99.90;;;;;;5074740;28;20509;-58
2023/09/07 02:23:55;;;;;;;4.10;3.70;;;17.10;99.90;;;;;;5081160;28;20048;-58
2023/09/07 02:26:20;;;;;;;6.97;4.13;;;17.00;99.90;;;;;;5079507;28;20064;-58
2023/09/07 02:28:46;;;;;;;6.60;4.82;;;17.00;99.90;;;;;;5041924;28;20060;-58
2023/09/07 02:31:12;;;;;;;4.90;3.90;;;17.00;99.90;;;;;;5075638;28;20058;-59
2023/09/07 02:33:37;;;;;;;4.30;3.90;;;17.00;99.90;;;;;;5059529;28;20139;-58
2023/09/07 02:36:03;;;;;;;4.47;3.53;;;17.00;99.90;;;;;;5080982;28;20452;-59
2023/09/07 02:38:30;;;;;;;5.43;3.90;;;17.00;99.90;;;;;;5059411;28;20048;-58
2023/09/07 02:40:56;;;;;;;7.05;4.38;;;17.00;99.90;;;;;;5079579;28;20117;-58
2023/09/07 02:43:22;;;;;;;8.32;4.90;;;17.00;99.90;;;;;;5064612;28;20057;-58
2023/09/07 02:45:49;;;;;;;8.75;5.82;;;16.90;99.90;;;;;;5080311;28;20063;-58
2023/09/07 02:48:17;;;;;;;6.63;5.18;;;16.90;99.90;;;;;;5080429;28;20063;-57
2023/09/07 02:50:45;;;;;;;4.93;4.47;;;16.90;99.90;;;;;;5079130;28;20968;-58
2023/09/07 02:53:10;;;;;;;5.55;4.50;;;16.90;99.90;;;;;;5075348;28;20106;-58
2023/09/07 02:55:39;;;;;;;5.40;4.90;;;16.90;99.90;;;;;;5077839;28;21199;-57
2023/09/07 02:58:05;;;;;;;5.53;4.75;;;16.80;99.90;;;;;;5076235;28;20700;-57
2023/09/07 03:00:31;;;;;;;6.63;5.32;;;16.80;99.90;;;;;;5031990;28;20052;-58
2023/09/07 03:02:57;;;;;;;5.35;4.85;;;16.70;99.90;;;;;;5080305;28;20134;-57
2023/09/07 03:05:22;;;;;;;7.78;5.28;;;16.70;99.90;;;;;;5071685;28;20593;-57
2023/09/07 03:07:48;;;;;;;9.52;5.97;;;16.70;99.90;;;;;;5072574;28;20068;-60
2023/09/07 03:10:18;;;;;;;6.80;5.47;;;16.70;99.90;;;;;;5068769;28;20052;-57
2023/09/07 03:12:43;;;;;;;8.32;5.65;;;16.70;99.90;;;;;;5075299;28;20562;-57
2023/09/07 03:15:09;;;;;;;7.40;5.00;;;16.70;99.90;;;;;;5080957;28;20056;-58
2023/09/07 03:17:35;;;;;;;7.10;6.00;;;16.70;99.90;;;;;;5061488;28;20068;-57
2023/09/07 03:20:07;;;;;;;5.90;5.30;;;16.70;99.90;;;;;;5076888;28;20534;-58
2023/09/07 03:22:33;;;;;;;6.82;5.50;;;16.70;99.90;;;;;;5067326;28;20044;-57
2023/09/07 03:24:59;;;;;;;5.47;4.97;;;16.70;99.90;;;;;;5058080;28;20397;-58
2023/09/07 03:27:24;;;;;;;7.35;5.25;;;16.70;99.90;;;;;;5074446;28;20048;-58
2023/09/07 03:29:51;;;;;;;7.22;5.15;;;16.60;99.90;;;;;;5079151;28;20696;-57
2023/09/07 03:32:17;;;;;;;5.10;4.45;;;16.60;99.90;;;;;;5065096;28;20619;-55
2023/09/07 03:34:43;;;;;;;5.43;4.70;;;16.60;99.90;;;;;;5081455;28;20139;-57
2023/09/07 03:37:11;;;;;;;6.75;6.07;;;16.60;99.90;;;;;;5082881;28;20058;-57
2023/09/07 03:39:37;;;;;;;6.25;4.90;;;16.60;99.90;;;;;;5072273;28;21266;-58
2023/09/07 03:42:03;;;;;;;5.45;4.90;;;16.50;99.90;;;;;;5075853;28;20051;-57
2023/09/07 03:44:28;;;;;;;6.10;5.40;;;16.50;99.90;;;;;;5071125;28;20044;-58
2023/09/07 03:46:54;;;;;;;6.55;5.43;;;16.60;99.90;;;;;;5063713;28;20437;-57
2023/09/07 03:49:20;;;;;;;8.75;6.00;;;16.70;99.90;;;;;;5063106;28;20174;-56
2023/09/07 03:51:45;;;;;;;7.65;5.20;;;16.70;99.90;;;;;;5049937;28;20048;-57
2023/09/07 03:54:11;;;;;;;6.78;5.00;;;16.70;99.90;;;;;;5079652;28;20051;-57
2023/09/07 03:56:39;;;;;;;5.80;5.20;;;17.20;99.90;;;;;;5071594;28;20044;-57
2023/09/07 03:59:04;;;;;;;6.57;5.80;;;16.70;99.90;;;;;;5053272;28;20564;-57
2023/09/07 04:01:30;;;;;;;6.78;4.80;;;16.70;99.90;;;;;;5077788;28;20059;-57
2023/09/07 04:03:56;;;;;;;7.22;5.72;;;16.70;99.90;;;;;;5083840;28;20072;-57
2023/09/07 04:06:23;;;;;;;7.07;5.72;;;16.80;99.90;;;;;;5063338;28;20059;-56
2023/09/07 04:08:49;;;;;;;6.88;4.90;;;16.80;99.90;;;;;;5083062;28;20098;-57
2023/09/07 04:11:18;;;;;;;6.13;5.43;;;16.80;99.90;;;;;;5083745;28;20044;-57
2023/09/07 04:13:44;;;;;;;5.60;5.05;;;16.80;99.90;;;;;;5080494;28;20151;-57
2023/09/07 04:16:10;;;;;;;6.95;5.65;;;16.80;99.90;;;;;;5064912;28;20150;-57
2023/09/07 04:18:36;;;;;;;6.10;5.50;;;16.80;99.90;;;;;;5080807;28;20417;-57
2023/09/07 04:21:08;;;;;;;6.22;5.18;;;16.70;99.90;;;;;;5084045;28;20139;-58
2023/09/07 04:23:38;;;;;;;5.97;5.47;;;16.70;99.90;;;;;;5080844;28;20071;-57
2023/09/07 04:26:08;;;;;;;8.00;6.13;;;16.70;99.90;;;;;;5083314;28;20448;-58
2023/09/07 04:28:34;;;;;;;6.90;5.97;;;16.70;99.90;;;;;;5077665;28;20067;-57
2023/09/07 04:31:00;;;;;;;8.13;5.15;;;16.70;99.90;;;;;;5037545;28;1100023;-57
2023/09/07 04:33:25;;;;;;;6.13;5.53;;;16.70;99.90;;;;;;5079806;28;20175;-57
2023/09/07 04:35:51;;;;;;;8.75;6.22;;;16.60;99.90;;;;;;5082859;28;20056;-60
2023/09/07 04:38:17;;;;;;;8.07;5.63;;;16.70;99.90;;;;;;5061070;28;20052;-57
2023/09/07 04:40:42;;;;;;;8.73;5.53;;;16.70;99.90;;;;;;5080909;28;20075;-59
2023/09/07 04:43:08;;;;;;;6.45;5.85;;;16.70;99.90;;;;;;5064169;28;20059;-57
2023/09/07 04:45:34;;;;;;;6.45;5.65;;;16.70;99.90;;;;;;5080643;28;20067;-59
2023/09/07 04:47:59;;;;;;;5.72;5.15;;;16.70;99.90;;;;;;5082905;28;20079;-58
2023/09/07 04:50:25;;;;;;;6.38;5.78;;;16.70;99.90;;;;;;5078715;28;20151;-60
2023/09/07 04:52:51;;;;;;;7.18;5.38;;;16.70;99.90;;;;;;5082388;28;20085;-60
2023/09/07 04:55:16;;;;;;;8.93;5.60;;;16.70;99.90;;;;;;5063722;28;20059;-61
2023/09/07 04:57:42;;;;;;;7.85;6.28;;;16.70;99.90;;;;;;5079642;28;20632;-60
2023/09/07 05:00:11;;;;;;;6.60;5.03;;;16.80;99.90;;;;;;5061061;28;20101;-61
2023/09/07 05:02:41;;;;;;;6.32;5.72;;;16.80;99.90;;;;;;5079991;28;21409;-57
2023/09/07 05:05:07;;;;;;;6.63;5.70;;;16.80;99.90;;;;;;5082330;28;20075;-57
2023/09/07 05:07:34;;;;;;;7.20;5.57;;;16.90;99.90;;;;;;5079066;28;20052;-58
2023/09/07 05:09:59;;;;;;;7.13;5.70;;;16.80;99.90;;;;;;5081117;28;20056;-59
2023/09/07 05:12:25;;;;;;;7.95;6.30;;;16.90;99.90;;;;;;5061500;28;20513;-57
2023/09/07 05:14:51;;;;;;;9.45;5.93;;;16.90;99.90;;;;;;5063434;28;20134;-58
2023/09/07 05:17:17;;;;;;;7.88;7.07;;;16.80;99.90;;;;;;5081896;28;20056;-58
2023/09/07 05:19:43;;;;;;;7.07;5.93;;;16.90;99.90;;;;;;5079608;28;20060;-58
2023/09/07 05:22:09;;;;;;;9.05;6.15;;;16.80;99.90;;;;;;5082260;28;20064;-57
2023/09/07 05:24:38;;;;;;;7.43;5.75;;;16.90;99.90;;;;;;5060568;28;20074;-57
2023/09/07 05:27:05;;;;;;;8.70;6.10;;;16.90;99.90;;;;;;5081502;28;20056;-57
2023/09/07 05:29:30;;;;;;;9.63;6.03;;;16.90;99.90;;;;;;5063738;28;20074;-57
2023/09/07 05:31:56;;;;;;;8.23;5.72;;;16.90;99.90;;;;;;5063640;28;20052;-58
2023/09/07 05:34:22;;;;;;;10.43;7.35;;;17.00;99.90;;;;;;5079648;28;20147;-57
2023/09/07 05:36:48;;;;;;;6.30;5.68;;;17.00;99.90;;;;;;5080419;28;20051;-57
2023/09/07 05:39:17;;;;;;;6.70;6.00;;;17.10;99.90;;;;;;5059720;28;20056;-57
2023/09/07 05:41:43;;;;;;;9.57;5.72;;;17.20;99.90;;;;;;5079028;28;20056;-57
2023/09/07 05:44:09;;;;;;;8.60;6.28;;;17.30;99.90;;;;;;5081388;28;20094;-58
2023/09/07 05:46:35;;;;;;;8.07;5.68;;;17.30;99.90;;;;;;5079153;28;20103;-58
2023/09/07 05:49:00;;;;;;;7.75;6.95;;;17.40;99.90;;;;;;5081799;28;20063;-57
2023/09/07 05:51:26;;;;;;;7.80;6.20;;;17.50;99.90;;;;;;5078590;28;20060;-57
2023/09/07 05:53:52;;;;;;;7.97;6.57;;;17.70;99.90;;;;;;5065926;28;20048;-58
2023/09/07 05:56:17;;;;;;;8.93;6.03;;;17.70;99.90;;;;;;5064677;28;20531;-56
2023/09/07 05:58:43;;;;;;;6.40;5.60;;;17.80;99.90;;;;;;5069734;28;20134;-58
2023/09/07 06:01:09;;;;;;;8.70;5.90;;;17.90;99.90;;;;;;5076447;28;20051;-58
2023/09/07 06:03:35;;;;;;;6.57;5.90;;;18.00;99.90;;;;;;5063047;28;20052;-58
2023/09/07 06:06:00;;;;;;;6.80;5.43;;;18.10;99.90;;;;;;5066915;28;20524;-58
2023/09/07 06:08:26;;;;;;;8.32;5.95;;;18.20;99.90;;;;;;5078470;28;20136;-58
2023/09/07 06:10:53;;;;;;;8.48;7.35;;;18.30;99.90;;;;;;5043144;28;20079;-58
2023/09/07 06:13:19;;;;;;;7.38;5.95;;;18.40;99.90;;;;;;5063822;28;20055;-58
2023/09/07 06:15:44;;;;;;;7.53;5.68;;;18.50;99.90;;;;;;5071628;28;20048;-57
2023/09/07 06:18:10;;;;;;;8.45;5.95;;;18.60;99.90;;;;;;5080155;28;20791;-57
2023/09/07 06:20:36;;;;;;;9.35;5.97;;;18.70;99.90;;;;;;5077425;28;20106;-58
2023/09/07 06:23:01;;;;;;;8.18;6.88;;;18.80;99.90;;;;;;5076653;28;20060;-58
2023/09/07 06:25:27;;;;;;;7.00;6.05;;;18.90;99.90;;;;;;5046900;28;20056;-58
2023/09/07 06:27:53;;;;;;;9.43;7.13;;;19.00;99.90;;;;;;5067272;28;20060;-58
2023/09/07 06:30:19;;;;;;;9.27;6.60;;;19.20;99.90;;;;;;5058042;28;20056;-57
2023/09/07 06:32:45;;;;;;;10.02;5.80;;;19.30;99.90;;;;;;5079702;28;20069;-58
2023/09/07 06:35:11;;;;;;;6.97;6.28;;;19.40;99.90;;;;;;5062468;28;20052;-59
2023/09/07 06:37:40;;;;;;;7.68;6.25;;;19.60;99.90;;;;;;5077018;28;20052;-57
2023/09/07 06:40:06;;;;;;;8.52;6.50;;;19.80;99.90;;;;;;5062188;28;20119;-57
2023/09/07 06:42:32;;;;;;;8.15;6.38;;;20.00;99.90;;;;;;5078018;28;20063;-57
2023/09/07 06:44:58;;;;;;;9.70;5.97;;;20.20;99.90;;;;;;5079623;28;20056;-57
2023/09/07 06:47:23;;;;;;;7.15;6.22;;;20.50;99.90;;;;;;5078281;28;20167;-57
2023/09/07 06:49:49;;;;;;;6.30;5.70;;;20.60;99.90;;;;;;5075066;28;20143;-58
2023/09/07 06:52:18;;;;;;;8.48;5.93;;;20.80;99.90;;;;;;5067824;28;20051;-58
2023/09/07 06:54:44;;;;;;;9.32;6.22;;;20.80;99.90;;;;;;5077741;28;20055;-59
2023/09/07 06:57:09;;;;;;;9.20;6.55;;;21.00;99.90;;;;;;5060579;28;20048;-58
2023/09/07 06:59:35;;;;;;;14.30;7.88;;;21.20;99.90;;;;;;5063126;28;20052;-58
2023/09/07 07:02:01;;;;;;;7.93;5.93;;;21.30;99.90;;;;;;5078544;28;20546;-58
2023/09/07 07:04:27;;;;;;;8.10;6.53;;;21.30;99.90;;;;;;5067498;28;20079;-57
2023/09/07 07:06:53;;;;;;;8.75;6.90;;;21.60;99.90;;;;;;5069834;28;20155;-58
2023/09/07 07:09:19;;;;;;;7.75;6.07;;;21.70;99.90;;;;;;5082728;28;20136;-58
2023/09/07 07:11:45;;;;;;;9.70;6.30;;;21.90;99.90;;;;;;5083467;28;20048;-57
2023/09/07 07:14:11;;;;;;;9.70;5.93;;;21.90;99.90;;;;;;5068152;28;20181;-58
2023/09/07 07:16:37;;;;;;;12.52;6.35;;;22.10;99.90;;;;;;5066014;28;20044;-58
2023/09/07 07:19:03;;;;;;;7.88;6.38;;;22.20;99.90;;;;;;5084224;28;20608;-58
2023/09/07 07:21:29;;;;;;;10.25;6.13;;;22.40;99.90;;;;;;5081306;28;20048;-57
2023/09/07 07:23:55;;;;;;;9.10;6.22;;;22.50;99.90;;;;;;5080814;28;20795;-58
2023/09/07 07:26:20;;;;;;;7.93;5.22;;;22.70;99.90;;;;;;5064212;28;20055;-58
2023/09/07 07:28:46;;;;;;;7.53;6.03;;;22.90;99.90;;;;;;5082937;28;20147;-59
2023/09/07 07:31:12;;;;;;;7.97;5.50;;;23.00;99.90;;;;;;5083317;28;20055;-59
2023/09/07 07:33:38;;;;;;;9.13;5.68;;;23.10;99.90;;;;;;5060352;28;20088;-58
2023/09/07 07:36:04;;;;;;;6.28;5.07;;;23.20;99.90;;;;;;5070843;28;20090;-58
2023/09/07 07:38:30;;;;;;;6.13;5.45;;;23.40;99.90;;;;;;5078910;28;20067;-57
2023/09/07 07:40:56;;;;;;;9.02;5.00;;;23.40;99.90;;;;;;5083595;28;20052;-58
2023/09/07 07:43:22;;;;;;;5.57;4.65;;;23.60;99.90;;;;;;5073231;28;20061;-58
2023/09/07 07:45:47;;;;;;;6.93;5.20;;;23.80;99.90;;;;;;5074267;28;20812;-58
2023/09/07 07:48:17;;;;;;;7.50;4.95;;;23.90;99.90;;;;;;5067667;28;20137;-58
2023/09/07 07:50:43;;;;;;;5.43;4.88;;;24.10;99.90;;;;;;5077927;28;20057;-58
2023/09/07 07:53:09;;;;;;;7.95;5.00;;;24.10;99.90;;;;;;5063933;28;20048;-58
2023/09/07 07:55:38;;;;;;;6.03;5.25;;;24.30;99.90;;;;;;5062758;28;20052;-57
2023/09/07 07:58:08;;;;;;;6.72;5.05;;;24.40;99.90;;;;;;5082880;28;20139;-58
2023/09/07 08:00:37;;;;;;;5.18;4.60;;;24.70;99.90;;;;;;5079057;28;20119;-58
2023/09/07 08:03:05;;;;;;;5.85;5.03;;;24.80;99.90;;;;;;5051566;28;20665;-58
2023/09/07 08:05:31;;;;;;;4.55;4.15;;;24.80;99.90;;;;;;5076972;28;20675;-58
2023/09/07 08:07:57;;;;;;;7.10;5.47;;;24.90;99.90;;;;;;5096750;28;20060;-57
2023/09/07 08:10:23;;;;;;;11.88;4.68;;;25.00;99.90;;;;;;5065222;28;20056;-57
2023/09/07 08:12:53;;;;;;;6.43;4.32;;;25.30;99.90;;;;;;5081106;28;20052;-58
2023/09/07 08:15:21;;;;;;;7.80;4.47;;;25.40;99.90;;;;;;5080671;28;20118;-56
2023/09/07 08:17:47;;;;;;;6.43;5.38;;;25.60;99.90;;;;;;5080590;28;20071;-58
2023/09/07 08:22:40;;;;;;;10.32;6.45;;;26.00;99.90;;;;;;5072671;28;20083;-57
2023/09/07 08:25:07;;;;;;;7.82;4.82;;;26.30;99.90;;;;;;5068301;28;20399;-58
2023/09/07 08:27:33;;;;;;;7.35;4.97;;;26.40;99.90;;;;;;5071927;28;20104;-59
2023/09/07 08:29:59;;;;;;;6.80;5.05;;;26.80;99.90;;;;;;5075387;28;20060;-58
2023/09/07 08:32:24;;;;;;;5.80;5.28;;;26.90;99.90;;;;;;5079141;28;20723;-58
2023/09/07 08:34:50;;;;;;;7.03;4.72;;;27.20;99.90;;;;;;5069841;28;20056;-58
2023/09/07 08:37:18;;;;;;;5.13;4.50;;;27.40;99.90;;;;;;5062380;28;20101;-58
2023/09/07 08:39:43;;;;;;;5.10;4.45;;;27.80;99.90;;;;;;5072168;28;20102;-58
2023/09/07 08:42:09;;;;;;;5.47;4.97;;;27.70;99.90;;;;;;5082747;28;20448;-58
2023/09/07 08:44:37;;;;;;;7.88;4.63;;;27.90;99.90;;;;;;5078743;28;20048;-60
2023/09/07 08:47:04;;;;;;;5.18;4.68;;;28.10;99.90;;;;;;5077599;28;20281;-58
2023/09/07 08:49:32;;;;;;;5.82;4.25;;;28.30;99.90;;;;;;5027831;28;1098342;-58
2023/09/07 08:51:59;;;;;;;4.60;4.07;;;28.80;99.90;;;;;;5077990;28;20060;-60
2023/09/07 08:54:26;;;;;;;5.65;4.88;;;28.90;99.90;;;;;;5069290;28;20150;-60
2023/09/07 08:56:52;;;;;;;5.10;4.60;;;29.20;99.90;;;;;;5063106;28;20410;-59
2023/09/07 08:59:18;;;;;;;5.53;3.83;;;29.30;99.90;;;;;;5080979;28;20052;-57
2023/09/07 09:01:44;;;;;;;5.95;3.75;;;29.30;99.90;;;;;;5081053;28;20056;-58
2023/09/07 09:04:10;;;;;;;5.15;3.65;;;29.30;99.90;;;;;;5068900;28;20131;-59
2023/09/07 09:06:35;;;;;;;5.07;4.22;;;29.50;99.90;;;;;;5078394;28;20641;-58
2023/09/07 09:09:04;;;;;;;4.70;4.07;;;29.60;99.90;;;;;;5080265;28;20769;-59
2023/09/07 09:11:30;;;;;;;5.03;3.63;;;29.70;99.90;;;;;;5074928;28;20117;-58
2023/09/07 09:13:56;;;;;;;6.40;3.53;;;29.80;99.90;;;;;;5073110;28;20537;-59
2023/09/07 09:16:22;;;;;;;4.97;4.28;;;29.90;99.90;;;;;;5080097;28;20092;-58
2023/09/07 09:18:52;;;;;;;4.47;3.90;;;30.20;99.90;;;;;;5055097;28;20079;-58
2023/09/07 09:21:22;;;;;;;8.60;3.50;;;30.50;99.90;;;;;;5055668;28;20447;-58
2023/09/07 09:23:50;;;;;;;5.65;3.15;;;30.50;99.90;;;;;;5062350;28;20127;-58
2023/09/07 09:26:18;;;;;;;4.40;3.97;;;30.70;99.90;;;;;;5077496;28;20533;-59
2023/09/07 09:28:47;;;;;;;3.90;2.92;;;30.80;99.90;;;;;;5074279;28;20134;-58
2023/09/07 09:33:40;;;;;;;3.17;2.88;;;31.00;99.90;;;;;;5077464;28;21592;-60
2023/09/07 09:36:07;;;;;;;3.80;3.40;;;31.10;99.90;;;;;;5081074;28;20195;-59
2023/09/07 09:38:33;;;;;;;4.68;3.08;;;31.10;99.90;;;;;;5077766;28;20052;-59
2023/09/07 09:40:59;;;;;;;4.60;3.25;;;31.40;99.90;;;;;;5077788;28;20052;-59
2023/09/07 09:43:26;;;;;;;3.90;3.33;;;31.40;99.90;;;;;;5060591;28;20520;-59
2023/09/07 09:45:52;;;;;;;4.43;3.33;;;31.30;99.90;;;;;;5062085;28;20055;-59
2023/09/07 09:48:22;;;;;;;3.95;3.53;;;31.50;99.90;;;;;;5056838;28;20074;-59
2023/09/07 09:50:48;;;;;;;5.97;2.80;;;31.60;99.90;;;;;;5074786;28;20063;-59
2023/09/07 09:53:20;;;;;;;5.40;3.13;;;31.80;99.90;;;;;;5077761;28;20138;-59
2023/09/07 09:55:50;;;;;;;3.72;2.92;;;31.60;99.90;;;;;;5064763;28;20552;-59
2023/09/07 09:58:19;;;;;;;4.07;3.67;;;31.60;99.90;;;;;;5074477;28;20056;-60
2023/09/07 10:00:47;;;;;;;3.60;2.85;;;31.30;99.90;;;;;;5073146;28;20048;-59
2023/09/07 10:03:17;;;;;;;5.55;3.95;;;31.10;99.90;;;;;;5065420;28;20186;-59
2023/09/07 10:05:46;;;;;;;3.80;3.50;;;31.00;99.90;;;;;;5075327;28;20055;-58
2023/09/07 10:08:17;;;;;;;4.03;3.15;;;31.30;99.90;;;;;;5075705;28;20052;-58
2023/09/07 10:10:46;;;;;;;4.50;3.38;;;31.20;99.90;;;;;;5050794;28;20044;-59
2023/09/07 10:13:17;;;;;;;3.85;3.50;;;31.40;99.90;;;;;;5073916;28;20127;-59
2023/09/07 10:15:44;;;;;;;5.10;3.30;;;31.10;99.90;;;;;;5061414;28;20056;-60
2023/09/07 10:18:12;;;;;;;4.25;2.80;;;31.30;99.90;;;;;;5066159;28;20151;-60
2023/09/07 10:20:50;;;;;;;4.97;3.75;;;31.50;99.90;;;;;;5078264;28;20113;-59
2023/09/07 10:23:19;;;;;;;3.75;3.40;;;31.30;99.90;;;;;;5079329;28;20159;-59
2023/09/07 10:25:52;;;;;;;6.35;3.10;;;31.20;99.90;;;;;;5078686;28;20514;-59
2023/09/07 10:28:18;;;;;;;;;;;31.60;99.90;;;;;;5080242;28;20146;-57
2023/09/07 10:30:45;;;;;;;3.83;3.38;;;31.50;99.30;;;;;;5078865;28;20397;-59
2023/09/07 10:35:42;;;;;;;7.88;3.97;;;31.50;99.90;;;;;;5076763;28;20197;-59
2023/09/07 10:38:13;;;;;;;4.72;3.65;;;31.60;99.90;;;;;;5067289;28;20113;-59
2023/09/07 10:40:39;;;;;;;5.15;3.75;;;31.60;99.90;;;;;;5078754;28;20059;-59
2023/09/07 10:43:05;;;;;;;5.75;3.10;;;31.30;99.90;;;;;;5048309;28;20517;-59
2023/09/07 10:45:31;;;;;;;5.72;3.20;;;31.60;99.90;;;;;;5066721;28;20516;-58
2023/09/07 10:47:57;;;;;;;4.32;2.97;;;31.70;99.90;;;;;;5080453;28;20060;-59
2023/09/07 10:50:22;;;;;;;4.82;3.20;;;31.90;99.30;;;;;;5047185;28;20218;-57
2023/09/07 10:52:49;;;;;;;4.35;3.42;;;31.60;99.40;;;;;;5079005;28;20055;-58
2023/09/07 10:55:18;;;;;;;5.63;3.47;;;31.50;98.90;;;;;;5062886;28;20059;-59
2023/09/07 10:57:45;;;;;;;3.30;3.00;;;31.40;98.40;;;;;;5073409;28;20064;-61
2023/09/07 11:00:12;;;;;;;6.72;3.22;;;31.40;98.40;;;;;;5080939;28;20056;-60
2023/09/07 11:02:38;;;;;;;3.42;2.70;;;31.50;99.10;;;;;;5077235;28;20667;-58
2023/09/07 11:05:11;;;;;;;3.50;3.10;;;31.70;99.10;;;;;;5055793;28;20053;-58
2023/09/07 11:07:43;;;;;;;4.53;2.97;;;31.60;98.50;;;;;;5079849;28;20752;-59
2023/09/07 11:10:10;;;;;;;3.60;3.10;;;31.40;98.70;;;;;;5083116;28;20060;-60
2023/09/07 11:12:39;;;;;;;3.90;2.95;;;31.80;98.40;;;;;;5079239;28;20408;-59
2023/09/07 11:15:10;;;;;;;4.07;3.30;;;31.90;98.40;;;;;;5058283;28;20049;-59
2023/09/07 11:17:41;;;;;;;4.85;3.25;;;32.00;97.80;;;;;;5061392;28;20474;-60
2023/09/07 11:20:10;;;;;;;4.70;3.10;;;32.20;98.60;;;;;;5082173;28;20052;-60
2023/09/07 11:22:38;;;;;;;4.82;3.67;;;32.10;98.20;;;;;;5070823;28;20080;-59
2023/09/07 11:25:12;;;;;;;6.05;3.30;;;33.80;96.80;;;;;;5067897;28;20579;-65
2023/09/07 11:27:42;;;;;;;5.20;3.22;;;35.70;96.20;;;;;;5074941;28;20167;-60
2023/09/07 11:30:12;;;;;;;2.72;2.47;;;36.90;94.80;;;;;;5073854;28;20048;-66
2023/09/07 11:32:42;;;;;;;5.15;2.97;;;37.70;93.00;;;;;;5066558;28;20061;-63
2023/09/07 11:35:09;;;;;;;3.72;2.97;;;37.60;92.50;;;;;;5066411;28;20044;-64
2023/09/07 11:37:36;;;;;;;3.67;3.38;;;38.00;91.80;;;;;;5076749;28;20059;-58
2023/09/07 11:40:04;;;;;;;3.28;2.80;;;38.00;91.10;;;;;;5076997;28;20067;-59
2023/09/07 11:42:30;;;;;;;3.83;3.08;;;38.60;90.50;;;;;;5078416;28;20088;-59
2023/09/07 11:44:56;;;;;;;3.42;3.08;;;39.10;90.70;;;;;;5080639;28;20508;-58
2023/09/07 11:47:22;;;;;;;5.88;3.50;;;40.40;90.50;;;;;;5079399;28;20560;-59
2023/09/07 11:49:49;;;;;;;4.78;2.95;;;40.70;88.70;;;;;;5064915;28;20056;-59
2023/09/07 11:52:19;;;;;;;5.85;3.20;;;40.60;87.70;;;;;;5078363;28;20839;-58
2023/09/07 11:54:46;;;;;;;5.03;3.00;;;41.20;87.50;;;;;;5063996;28;20040;-59
2023/09/07 11:57:12;;;;;;;4.82;3.70;;;40.90;88.30;;;;;;5062282;28;20052;-59
2023/09/07 11:59:39;;;;;;;4.10;3.45;;;40.10;87.90;;;;;;5076412;28;20579;-59
2023/09/07 12:02:06;;;;;;;4.30;3.17;;;39.80;89.30;;;;;;5076278;28;20052;-59
2023/09/07 12:04:32;;;;;;;4.35;3.30;;;38.10;90.00;;;;;;5060827;28;20045;-59
2023/09/07 12:06:58;;;;;;;8.10;3.55;;;36.20;90.40;;;;;;5058853;28;20066;-63
2023/09/07 12:09:24;;;;;;;3.28;3.00;;;35.40;91.10;;;;;;5059796;28;20048;-60
2023/09/07 12:11:49;;;;;;;3.45;2.92;;;34.80;91.50;;;;;;5057804;28;20398;-60
2023/09/07 12:14:19;;;;;;;3.28;2.97;;;34.60;92.30;;;;;;5062424;28;20163;-60
2023/09/07 12:16:45;;;;;;;5.85;4.32;;;34.20;92.40;;;;;;5076921;28;20064;-59
2023/09/07 12:19:12;;;;;;;3.28;2.83;;;34.30;92.70;;;;;;5079708;28;20083;-59
2023/09/07 12:21:39;;;;;;;4.90;3.42;;;34.50;92.70;;;;;;5057920;28;20052;-59
2023/09/07 12:24:06;;;;;;;3.63;3.10;;;34.20;92.80;;;;;;5078862;28;20066;-59
2023/09/07 12:26:31;;;;;;;3.63;3.30;;;34.10;93.20;;;;;;5054375;28;20061;-59
2023/09/07 12:28:57;;;;;;;3.72;3.42;;;34.10;93.30;;;;;;5079478;28;20056;-59
2023/09/07 12:31:23;;;;;;;4.03;3.35;;;33.80;92.80;;;;;;5071199;28;20139;-58
2023/09/07 12:33:49;;;;;;;3.60;3.10;;;33.90;93.70;;;;;;5080485;28;20460;-59
2023/09/07 12:36:21;;;;;;;3.53;3.22;;;33.70;93.20;;;;;;5076967;28;20047;-58
2023/09/07 12:38:47;;;;;;;4.00;2.88;;;33.70;93.50;;;;;;5070337;28;20505;-60
2023/09/07 12:41:13;;;;;;;4.30;3.08;;;33.90;93.20;;;;;;5079228;28;20052;-59
2023/09/07 12:43:39;;;;;;;5.22;3.92;;;33.90;93.30;;;;;;5077270;28;20077;-59
2023/09/07 12:46:04;;;;;;;4.25;3.28;;;33.70;92.60;;;;;;5075851;28;20130;-58
2023/09/07 12:48:30;;;;;;;5.40;3.00;;;34.00;93.30;;;;;;5073540;28;20086;-61
2023/09/07 12:50:56;;;;;;;3.05;2.75;;;33.70;93.40;;;;;;5078156;28;20060;-59
2023/09/07 12:53:25;;;;;;;4.22;2.97;;;34.10;93.70;;;;;;5075151;28;20090;-59